Time;durP1;ratioP1;P1;durP2;ratioP2;P2;SDS_P1;SDS_P2;PMS_P1;PMS_P2;Temp;Humidity;BMP_temperature;BMP_pressure;BME280_temperature;BME280_humidity;BME280_pressure;Samples;Min_cycle;Max_cycle;Signal;HPM_P1;HPM_P2
2024/02/03 00:00:08;;;;;;;;;11.75;11.00;;;;;9.60;40.92;101915.34;146617;617;46915;-71
2024/02/03 00:03:03;;;;;;;;;6.75;6.75;;;;;9.63;40.82;101919.06;146625;582;46020;-69
2024/02/03 00:06:03;;;;;;;;;10.50;10.50;;;;;9.66;40.18;101918.37;146619;564;46016;-70
2024/02/03 00:09:02;;;;;;;;;8.25;7.75;;;;;9.67;40.00;101921.09;146619;603;47020;-69
2024/02/03 00:11:57;;;;;;;;;11.00;10.25;;;;;9.70;40.28;101917.81;146617;585;47016;-70
2024/02/03 00:14:52;;;;;;;;;10.25;10.25;;;;;9.71;40.33;101914.44;146622;569;47010;-70
2024/02/03 00:17:56;;;;;;;;;10.00;10.00;;;;;9.72;40.59;101916.25;146620;610;46015;-69
2024/02/03 00:20:58;;;;;;;;;14.75;11.50;;;;;9.73;40.64;101924.91;146619;600;46020;-69
2024/02/03 00:24:02;;;;;;;;;;;;;;;;;;;;;
2024/02/03 00:27:08;;;;;;;;;14.00;12.75;;;;;9.69;41.08;101909.16;146620;566;46021;-68
2024/02/03 00:30:26;;;;;;;;;14.25;13.75;;;;;7.59;41.93;101559.84;146616;607;46012;-68
2024/02/03 00:33:25;;;;;;;;;18.50;12.75;;;;;9.58;41.26;101919.50;146620;590;46013;-67
2024/02/03 00:36:42;;;;;;;;;12.50;12.50;;;;;9.51;42.08;101912.97;146613;563;47012;-67
2024/02/03 00:39:41;;;;;;;;;18.75;16.00;;;;;9.46;40.85;101907.44;146619;582;46010;-67
2024/02/03 00:42:40;;;;;;;;;20.25;19.25;;;;;9.44;41.39;101911.63;146612;580;47014;-68
2024/02/03 00:45:35;;;;;;;;;34.00;28.25;;;;;9.44;41.24;101914.22;146617;625;46020;-69
2024/02/03 00:48:41;;;;;;;;;24.00;20.25;;;;;9.46;41.54;101911.72;146613;583;46014;-68
2024/02/03 00:51:36;;;;;;;;;28.75;24.75;;;;;9.45;41.65;101910.81;146614;620;46010;-68
2024/02/03 00:54:50;;;;;;;;;24.00;21.25;;;;;9.39;42.18;101914.63;146616;566;46012;-69
2024/02/03 00:57:43;;;;;;;;;10.25;9.25;;;;;9.27;42.46;101917.19;146617;602;46020;-68
2024/02/03 01:00:38;;;;;;;;;9.50;9.50;;;;;9.16;42.82;101915.50;146633;586;47919;-70
2024/02/03 01:03:48;;;;;;;;;11.75;11.00;;;;;8.93;42.93;101909.47;146640;567;45020;-69
2024/02/03 01:06:49;;;;;;;;;10.00;9.00;;;;;8.77;43.37;101909.97;146632;565;45014;-69
2024/02/03 01:09:49;;;;;;;;;12.75;11.75;;;;;7.63;44.20;101733.91;146636;595;46020;-69
2024/02/03 01:12:53;;;;;;;;;11.50;10.25;;;;;8.60;44.59;101905.19;146637;582;45017;-70
2024/02/03 01:15:54;;;;;;;;;18.00;17.50;;;;;8.51;45.37;101910.53;146638;571;45020;-69
2024/02/03 01:18:58;;;;;;;;;34.25;29.75;;;;;6.07;45.06;101494.53;146633;622;45014;-67
2024/02/03 01:21:59;;;;;;;;;23.25;21.00;;;;;8.38;45.17;101910.38;146636;579;45020;-69
2024/02/03 01:24:56;;;;;;;;;23.25;19.00;;;;;8.32;44.94;101892.66;146635;627;45016;-69
2024/02/03 01:27:53;;;;;;;;;16.00;15.25;;;;;8.29;45.24;101895.00;146636;645;45020;-68
2024/02/03 01:30:54;;;;;;;;;19.00;15.25;;;;;8.28;45.05;101900.91;146627;587;46016;-69
2024/02/03 01:34:03;;;;;;;;;15.25;15.25;;;;;8.24;45.52;101901.47;146627;624;46010;-70
2024/02/03 01:37:02;;;;;;;;;15.75;15.25;;;;;8.06;46.19;101900.00;146633;632;45016;-68
2024/02/03 01:40:04;;;;;;;;;17.25;15.25;;;;;7.80;46.67;101901.41;146636;708;45022;-67
2024/02/03 01:43:26;;;;;;;;;15.50;15.50;;;;;7.60;47.29;101897.22;146635;622;45034;-68
2024/02/03 01:46:25;;;;;;;;;21.00;19.25;;;;;7.52;47.32;101899.94;146637;565;45020;-69
2024/02/03 01:49:09;;;;;;;;;23.50;20.00;;;;;7.53;47.58;101902.62;146702;564;47023;-70
2024/02/03 01:52:21;;;;;;;;;16.75;16.75;;;;;7.61;47.50;101891.25;146612;633;46943;-69
2024/02/03 01:55:16;;;;;;;;;22.50;21.00;;;;;7.78;47.09;101894.31;146614;588;47010;-69
2024/02/03 01:58:16;;;;;;;;;17.00;16.00;;;;;7.89;47.11;101897.78;146610;567;46016;-69
2024/02/03 02:01:16;;;;;;;;;21.25;17.25;;;;;7.91;47.35;101897.09;146613;639;46020;-69
2024/02/03 02:04:31;;;;;;;;;15.25;14.00;;;;;7.90;47.11;101892.72;146610;595;46017;-70
2024/02/03 02:07:26;;;;;;;;;20.75;17.25;;;;;7.92;47.56;101900.59;146615;644;46012;-70
2024/02/03 02:10:22;;;;;;;;;20.25;18.50;;;;;7.87;47.87;101902.78;146610;574;47016;-69
2024/02/03 02:13:17;;;;;;;;;16.25;15.00;;;;;7.74;48.57;101902.59;146613;586;47010;-68
2024/02/03 02:16:20;;;;;;;;;16.25;15.50;;;;;7.56;49.52;101901.97;146612;647;46016;-69
2024/02/03 02:19:35;;;;;;;;;19.00;15.75;;;;;7.31;48.51;101894.78;146614;630;46011;-69
2024/02/03 02:22:32;;;;;;;;;17.50;15.00;;;;;7.25;49.90;101904.59;146612;624;46016;-69
2024/02/03 02:25:30;;;;;;;;;28.75;23.00;;;;;7.12;50.20;101913.00;146612;629;46020;-66
2024/02/03 02:28:24;;;;;;;;;22.00;19.25;;;;;7.06;50.22;101914.16;146613;573;46016;-66
2024/02/03 02:31:24;;;;;;;;;19.00;16.50;;;;;6.94;50.06;101903.72;146616;565;46020;-68
2024/02/03 02:34:28;;;;;;;;;14.50;13.25;;;;;6.96;50.24;101911.59;146607;590;47023;-68
2024/02/03 02:37:27;;;;;;;;;15.50;14.75;;;;;6.88;50.63;101914.41;146612;615;46020;-67
2024/02/03 02:40:26;;;;;;;;;34.50;29.75;;;;;6.77;51.53;101920.34;146611;583;46017;-67
2024/02/03 02:43:32;;;;;;;;;22.75;20.75;;;;;5.77;51.13;101748.56;146610;719;46020;-66
2024/02/03 02:46:29;;;;;;;;;29.25;27.00;;;;;6.77;50.92;101922.03;146610;629;46016;-66
2024/02/03 02:49:30;;;;;;;;;32.25;26.00;;;;;6.82;50.66;101926.81;146614;581;46020;-68
2024/02/03 02:52:28;;;;;;;;;22.25;21.00;;;;;6.81;51.17;101924.97;146607;587;46912;-66
2024/02/03 02:55:20;;;;;;;;;29.75;26.75;;;;;6.75;52.16;101928.69;146613;698;46021;-66
2024/02/03 02:58:24;;;;;;;;;21.25;20.75;;;;;6.65;52.20;101932.16;146610;643;47014;-65
2024/02/03 03:01:22;;;;;;;;;45.50;35.25;;;;;6.56;53.02;101929.69;146611;564;47020;-66
2024/02/03 03:04:15;;;;;;;;;36.00;32.00;;;;;6.50;53.09;101939.47;146610;611;46918;-67
2024/02/03 03:07:08;;;;;;;;;35.75;32.25;;;;;6.42;52.88;101933.66;146613;618;46020;-66
2024/02/03 03:10:00;;;;;;;;;42.75;32.50;;;;;6.43;53.20;101940.62;146611;564;46013;-66
2024/02/03 03:13:03;;;;;;;;;31.75;28.25;;;;;6.49;52.05;101940.25;146612;590;46020;-65
2024/02/03 03:15:47;;;;;;;;;34.75;29.50;;;;;6.54;53.31;101931.25;146703;564;46013;-67
2024/02/03 03:18:49;;;;;;;;;22.50;22.00;;;;;6.66;52.31;101933.97;146616;579;46012;-66
2024/02/03 03:21:42;;;;;;;;;35.25;29.00;;;;;6.71;52.61;101937.84;146620;580;46020;-66
2024/02/03 03:24:41;;;;;;;;;36.25;32.25;;;;;6.71;51.71;101932.69;146617;684;46017;-68
2024/02/03 03:27:39;;;;;;;;;35.75;31.00;;;;;6.74;52.20;101932.06;146620;569;46010;-69
2024/02/03 03:30:44;;;;;;;;;28.75;25.00;;;;;6.67;52.07;101935.78;146618;631;46017;-69
2024/02/03 03:33:37;;;;;;;;;21.25;17.75;;;;;6.53;52.84;101944.00;146617;577;47010;-70
2024/02/03 03:36:49;;;;;;;;;19.50;17.00;;;;;6.25;52.00;101932.19;146618;596;46914;-69
2024/02/03 03:39:52;;;;;;;;;;;;;;;;;;;;;
2024/02/03 03:42:51;;;;;;;;;29.00;27.25;;;;;6.06;54.01;101946.78;146619;603;46016;-68
2024/02/03 03:45:46;;;;;;;;;39.25;33.00;;;;;5.97;54.21;101951.13;146618;577;46021;-67
2024/02/03 03:48:50;;;;;;;;;18.50;17.00;;;;;5.91;53.66;101947.97;146613;605;46016;-68
2024/02/03 03:51:58;;;;;;;;;20.25;19.50;;;;;5.91;53.91;101958.25;146623;573;46020;-66
2024/02/03 03:54:56;;;;;;;;;28.25;25.00;;;;;5.75;54.93;101956.88;146619;569;46012;-67
2024/02/03 03:57:48;;;;;;;;;29.50;28.00;;;;;5.63;55.42;101960.00;146620;571;47010;-67
2024/02/03 04:00:44;;;;;;;;;24.75;22.00;;;;;5.55;55.02;101964.47;146619;573;45017;-70
2024/02/03 04:03:43;;;;;;;;;24.00;21.50;;;;;5.50;55.65;101953.75;146620;578;47010;-69
2024/02/03 04:06:36;;;;;;;;;24.25;20.25;;;;;5.43;55.42;101951.41;146619;578;47015;-70
2024/02/03 04:09:48;;;;;;;;;21.25;18.75;;;;;5.40;55.32;101963.97;146622;704;46020;-70
2024/02/03 04:12:44;;;;;;;;;22.75;19.25;;;;;5.32;55.88;101958.13;146616;620;47012;-68
2024/02/03 04:15:55;;;;;;;;;25.00;20.25;;;;;5.25;54.47;101960.00;146613;564;46020;-68
2024/02/03 04:18:47;;;;;;;;;24.50;19.25;;;;;5.25;55.87;101967.72;146610;577;47012;-68
2024/02/03 04:22:01;;;;;;;;;23.75;20.00;;;;;5.21;55.68;101966.53;146614;622;46020;-69
2024/02/03 04:24:54;;;;;;;;;28.50;26.50;;;;;5.21;55.71;101968.19;146610;598;46016;-67
2024/02/03 04:27:50;;;;;;;;;27.00;25.00;;;;;5.26;55.49;101962.69;146615;611;46020;-66
2024/02/03 04:30:43;;;;;;;;;31.25;25.25;;;;;5.39;54.90;101961.25;146610;764;47944;-68
2024/02/03 04:33:41;;;;;;;;;20.75;16.75;;;;;5.53;53.82;101963.44;146610;606;46020;-69
2024/02/03 04:36:59;;;;;;;;;25.50;20.25;;;;;5.68;53.03;101964.81;146609;569;46016;-68
2024/02/03 04:39:55;;;;;;;;;20.75;16.50;;;;;5.79;52.74;101970.91;146606;677;47021;-66
2024/02/03 04:42:58;;;;;;;;;27.25;24.00;;;;;5.90;52.76;101977.06;146611;680;46034;-66
2024/02/03 04:45:53;;;;;;;;;24.25;23.00;;;;;5.94;52.42;101971.44;146613;570;47010;-67
2024/02/03 04:49:01;;;;;;;;;22.25;20.25;;;;;6.00;51.63;101982.28;146610;720;46012;-75
2024/02/03 04:52:04;;;;;;;;;25.00;22.25;;;;;6.07;51.33;101979.47;146610;611;47020;-71
2024/02/03 04:55:04;;;;;;;;;21.75;20.00;;;;;6.18;51.04;101983.94;146606;620;47014;-70
2024/02/03 04:58:02;;;;;;;;;24.00;21.25;;;;;6.25;51.39;101990.53;146614;569;46020;-70
2024/02/03 05:01:05;;;;;;;;;23.75;22.25;;;;;6.29;51.43;101991.69;146610;569;46029;-69
2024/02/03 05:04:10;;;;;;;;;23.75;20.50;;;;;6.35;51.20;101989.66;146613;587;46020;-69
2024/02/03 05:07:05;;;;;;;;;22.75;21.50;;;;;6.39;51.50;101990.09;146608;615;46036;-68
2024/02/03 05:09:57;;;;;;;;;31.25;26.75;;;;;6.43;51.34;101992.16;146616;585;46020;-68
2024/02/03 05:12:54;;;;;;;;;29.00;26.25;;;;;6.48;51.69;102000.31;146610;639;46016;-69
2024/02/03 05:15:53;;;;;;;;;30.25;27.75;;;;;6.50;51.64;101998.75;146636;628;45011;-67
2024/02/03 05:18:45;;;;;;;;;29.00;26.50;;;;;6.48;51.41;102001.19;146632;637;46012;-67
2024/02/03 05:21:40;;;;;;;;;29.00;25.25;;;;;6.45;50.85;101995.78;146632;581;46020;-65
2024/02/03 05:24:32;;;;;;;;;31.00;25.50;;;;;6.46;51.38;102002.72;146635;585;45016;-66
2024/02/03 05:27:25;;;;;;;;;23.75;23.25;;;;;6.47;50.95;102004.53;146631;601;45914;-66
2024/02/03 05:30:23;;;;;;;;;24.25;20.25;;;;;6.52;50.97;102001.47;146631;574;45914;-67
2024/02/03 05:33:24;;;;;;;;;26.00;21.50;;;;;6.54;50.33;102006.00;146636;626;45020;-65
2024/02/03 05:36:19;;;;;;;;;25.75;24.00;;;;;6.59;50.18;102008.94;146631;599;45016;-67
2024/02/03 05:39:13;;;;;;;;;26.25;24.00;;;;;6.63;50.53;102016.19;146637;588;45029;-68
2024/02/03 05:42:06;;;;;;;;;24.00;21.00;;;;;6.65;50.01;102019.81;146633;608;45027;-67
2024/02/03 05:45:06;;;;;;;;;31.25;25.25;;;;;6.65;50.07;102025.84;146634;573;45011;-68
2024/02/03 05:47:57;;;;;;;;;32.75;29.25;;;;;6.63;50.10;102024.81;146632;569;46012;-67
2024/02/03 05:50:53;;;;;;;;;28.75;26.75;;;;;6.64;50.10;102025.75;146634;551;45020;-67
2024/02/03 05:53:58;;;;;;;;;27.25;23.00;;;;;6.61;49.54;102023.78;146630;581;46012;-67
2024/02/03 05:56:59;;;;;;;;;31.00;25.25;;;;;6.59;49.54;102029.56;146634;563;46010;-68
2024/02/03 05:59:58;;;;;;;;;29.75;28.75;;;;;6.56;49.32;102030.19;146632;626;46016;-67
2024/02/03 06:03:07;;;;;;;;;29.00;26.50;;;;;6.55;49.76;102033.56;146632;614;46010;-67
2024/02/03 06:06:07;;;;;;;;;30.00;24.25;;;;;6.52;50.19;102033.28;146634;613;45016;-67
2024/02/03 06:09:08;;;;;;;;;97.67;82.00;;;;;6.53;50.63;102041.91;146631;580;46010;-70
2024/02/03 06:12:04;;;;;;;;;94.33;76.33;;;;;6.53;51.07;102035.09;146639;564;46014;-67
2024/02/03 06:15:10;;;;;;;;;223.25;191.75;;;;;6.60;52.11;102037.41;146627;564;46032;-69
2024/02/03 06:18:05;;;;;;;;;73.33;55.00;;;;;7.27;53.08;102041.47;146612;657;47915;-70
2024/02/03 06:20:57;;;;;;;;;63.25;46.75;;;;;8.38;51.60;102044.75;146615;595;46010;-66
2024/02/03 06:23:49;;;;;;;;;50.00;41.25;;;;;9.60;48.27;102032.78;146607;661;47017;-70
2024/02/03 06:26:52;;;;;;;;;41.25;35.50;;;;;10.78;46.34;102038.00;146612;578;47010;-73
2024/02/03 06:29:57;;;;;;;;;50.25;40.00;;;;;11.67;43.02;102034.66;146608;630;46017;-69
2024/02/03 06:33:03;;;;;;;;;44.25;35.25;;;;;12.22;40.97;102027.09;146612;580;48010;-68
2024/02/03 06:36:00;;;;;;;;;54.00;42.75;;;;;12.31;41.12;102032.88;146611;581;46017;-69
2024/02/03 06:39:05;;;;;;;;;69.50;55.00;;;;;12.19;41.53;102035.59;146609;642;46020;-69
2024/02/03 06:42:05;;;;;;;;;45.75;36.00;;;;;11.90;41.68;102031.06;146608;605;47016;-68
2024/02/03 06:45:01;;;;;;;;;37.75;32.50;;;;;11.42;41.86;102041.59;146615;580;46010;-68
2024/02/03 06:47:53;;;;;;;;;37.50;30.00;;;;;10.92;43.17;102038.97;146609;609;46016;-68
2024/02/03 06:50:51;;;;;;;;;39.75;32.75;;;;;10.59;44.68;102040.94;146613;623;47021;-68
2024/02/03 06:53:43;;;;;;;;;41.25;32.25;;;;;10.70;45.57;102046.91;146609;645;47916;-68
2024/02/03 06:56:35;;;;;;;;;48.00;38.75;;;;;10.85;43.72;102043.72;146611;569;47010;-68
2024/02/03 06:59:27;;;;;;;;;47.50;38.75;;;;;10.83;44.09;102039.22;146607;614;46014;-70
2024/02/03 07:02:23;;;;;;;;;54.00;40.00;;;;;10.88;43.75;102039.56;146612;681;47012;-68
2024/02/03 07:05:24;;;;;;;;;49.75;41.50;;;;;11.18;44.66;102039.09;146610;634;46033;-68
2024/02/03 07:08:30;;;;;;;;;39.00;31.00;;;;;11.69;43.94;102037.37;146612;639;46020;-69
2024/02/03 07:11:28;;;;;;;;;35.00;31.25;;;;;12.28;42.41;102031.78;146605;591;47016;-68
2024/02/03 07:14:24;;;;;;;;;36.25;31.75;;;;;12.76;41.09;102027.91;146609;639;48010;-68
2024/02/03 07:17:26;;;;;;;;;;;;;;;;;;;;;
2024/02/03 07:20:19;;;;;;;;;36.50;33.00;;;;;12.98;39.46;102024.97;146614;564;46020;-70
2024/02/03 07:23:11;;;;;;;;;44.00;34.50;;;;;12.90;39.39;102030.59;146610;564;46016;-68
2024/02/03 07:26:05;;;;;;;;;49.75;39.75;;;;;12.78;40.23;102032.44;146613;609;46010;-69
2024/02/03 07:28:58;;;;;;;;;39.75;32.75;;;;;11.84;40.04;101879.91;146607;566;47016;-69
2024/02/03 07:31:50;;;;;;;;;37.00;29.75;;;;;12.61;39.82;102031.34;146611;631;47010;-69
2024/02/03 07:34:50;;;;;;;;;27.25;24.75;;;;;12.47;39.79;102029.56;146609;617;46015;-69
2024/02/03 07:37:47;;;;;;;;;26.00;23.50;;;;;12.40;39.81;102040.41;146611;640;47010;-69
2024/02/03 07:40:39;;;;;;;;;24.00;21.25;;;;;12.38;39.39;102039.38;146611;609;47012;-69
2024/02/03 07:43:45;;;;;;;;;26.75;24.75;;;;;12.36;40.38;102034.06;146614;578;46020;-70
2024/02/03 07:46:42;;;;;;;;;29.00;27.25;;;;;12.36;40.28;102044.47;146610;649;47016;-69
2024/02/03 07:49:38;;;;;;;;;24.25;24.00;;;;;12.31;40.07;102042.41;146615;600;45020;-69
2024/02/03 07:52:35;;;;;;;;;31.50;25.50;;;;;12.24;39.92;102044.59;146609;633;46017;-69
2024/02/03 07:55:33;;;;;;;;;28.25;24.75;;;;;12.25;40.46;102045.50;146611;615;47020;-69
2024/02/03 07:58:31;;;;;;;;;27.50;24.00;;;;;12.31;40.54;102038.09;146609;648;46014;-70
2024/02/03 08:01:49;;;;;;;;;19.00;19.00;;;;;11.27;40.85;101828.53;146613;660;46019;-68
2024/02/03 08:04:42;;;;;;;;;24.25;21.50;;;;;12.48;39.74;102042.66;146610;608;46028;-68
2024/02/03 08:07:58;;;;;;;;;20.25;18.00;;;;;11.24;41.17;101804.94;146611;628;46020;-70
2024/02/03 08:10:57;;;;;;;;;28.50;22.00;;;;;12.73;39.99;102035.53;146609;586;46016;-68
2024/02/03 08:13:51;;;;;;;;;25.00;21.25;;;;;12.83;38.77;102033.59;146609;779;47012;-69
2024/02/03 08:16:56;;;;;;;;;24.50;21.75;;;;;12.86;39.48;102040.69;146608;569;46016;-68
2024/02/03 08:19:49;;;;;;;;;27.00;25.75;;;;;12.82;39.11;102042.22;146613;632;46021;-69
2024/02/03 08:22:45;;;;;;;;;31.50;29.50;;;;;12.75;39.26;102049.56;146608;611;46016;-69
2024/02/03 08:26:00;;;;;;;;;31.75;28.25;;;;;12.69;39.28;102037.94;146610;606;47010;-68
2024/02/03 08:28:57;;;;;;;;;27.25;24.25;;;;;12.67;39.52;102042.12;146610;596;46016;-68
2024/02/03 08:31:55;;;;;;;;;32.00;28.00;;;;;12.68;39.20;102046.56;146612;626;48010;-70
2024/02/03 08:34:47;;;;;;;;;31.25;27.25;;;;;12.65;39.12;102045.47;146610;580;46017;-68
2024/02/03 08:37:40;;;;;;;;;32.75;28.50;;;;;12.61;38.99;102051.25;146611;588;46010;-71
2024/02/03 08:40:42;;;;;;;;;26.00;23.75;;;;;12.61;39.02;102053.87;146607;614;47016;-69
2024/02/03 08:43:37;;;;;;;;;34.75;29.75;;;;;12.67;39.45;102049.06;146614;638;46010;-68
2024/02/03 08:46:38;;;;;;;;;30.75;22.75;;;;;12.75;38.23;102045.25;146605;591;48016;-68
2024/02/03 08:49:36;;;;;;;;;25.75;24.25;;;;;12.87;39.80;102047.72;146615;650;46027;-68
2024/02/03 08:52:34;;;;;;;;;34.75;27.75;;;;;13.07;39.23;102044.66;146610;581;46016;-69
2024/02/03 08:55:47;;;;;;;;;34.00;28.50;;;;;13.17;38.46;102047.00;146612;666;46020;-68
2024/02/03 08:58:49;;;;;;;;;28.75;25.50;;;;;13.14;38.28;102041.59;146605;628;47016;-72
2024/02/03 09:01:44;;;;;;;;;28.00;26.00;;;;;13.15;38.45;102042.53;146614;653;46010;-69
2024/02/03 09:04:42;;;;;;;;;26.75;24.25;;;;;13.23;38.07;102038.69;146609;606;46914;-70
2024/02/03 09:07:45;;;;;;;;;30.00;27.50;;;;;13.33;37.25;102035.88;146613;638;47045;-68
2024/02/03 09:10:46;;;;;;;;;21.25;19.50;;;;;13.42;37.01;102037.22;146609;576;46017;-69
2024/02/03 09:13:47;;;;;;;;;22.00;21.00;;;;;13.52;38.33;102032.69;146614;634;46010;-68
2024/02/03 09:16:51;;;;;;;;;21.75;20.25;;;;;13.67;37.09;102032.69;146607;577;47012;-69
2024/02/03 09:19:48;;;;;;;;;24.75;21.50;;;;;13.82;37.41;102036.19;146611;612;47021;-68
2024/02/03 09:22:43;;;;;;;;;30.25;25.75;;;;;13.93;36.63;102034.22;146609;609;46016;-68
2024/02/03 09:25:39;;;;;;;;;22.75;22.00;;;;;13.98;36.67;102031.88;146610;599;47021;-68
2024/02/03 09:28:31;;;;;;;;;23.25;21.00;;;;;13.14;37.61;101868.84;146610;592;46914;-68
2024/02/03 09:31:32;;;;;;;;;25.25;23.75;;;;;14.16;38.13;102030.34;146610;564;47022;-71
2024/02/03 09:34:37;;;;;;;;;;;;;;;;;;;;;
2024/02/03 09:37:30;;;;;;;;;20.75;19.00;;;;;14.27;36.15;102026.66;146613;613;47020;-69
2024/02/03 09:40:26;;;;;;;;;21.50;20.00;;;;;14.35;37.26;102026.16;146608;643;47017;-70
2024/02/03 09:43:26;;;;;;;;;24.25;21.25;;;;;14.42;36.92;102010.03;146611;680;47010;-68
2024/02/03 09:46:27;;;;;;;;;22.00;18.25;;;;;14.51;36.51;102001.03;146609;616;47912;-69
2024/02/03 09:49:26;;;;;;;;;19.75;18.25;;;;;14.60;36.78;102010.22;146612;596;46010;-72
2024/02/03 09:52:22;;;;;;;;;19.00;17.00;;;;;14.65;36.15;101996.59;146608;592;46016;-68
2024/02/03 09:55:20;;;;;;;;;18.75;15.50;;;;;14.71;35.67;102001.28;146605;605;47010;-70
2024/02/03 09:58:17;;;;;;;;;15.75;15.75;;;;;14.67;35.97;101999.28;146607;571;46017;-69
2024/02/03 10:01:16;;;;;;;;;22.25;20.75;;;;;14.72;37.52;101990.91;146613;604;46020;-70
2024/02/03 10:04:12;;;;;;;;;20.00;17.00;;;;;14.84;37.17;101982.84;146607;597;47012;-70
2024/02/03 10:07:15;;;;;;;;;18.50;17.25;;;;;14.99;36.74;101981.03;146611;602;47010;-70
2024/02/03 10:10:12;;;;;;;;;17.25;16.25;;;;;15.10;36.36;101984.22;146607;603;47013;-70
2024/02/03 10:13:15;;;;;;;;;14.00;13.25;;;;;15.24;36.47;101970.16;146613;671;46012;-71
2024/02/03 10:16:27;;;;;;;;;20.00;17.75;;;;;15.28;35.03;101967.72;146610;563;46012;-70
2024/02/03 10:19:31;;;;;;;;;30.50;26.75;;;;;15.16;34.85;101971.47;146609;725;47010;-70
2024/02/03 10:22:45;;;;;;;;;16.50;14.75;;;;;13.97;36.96;101775.44;146609;611;46034;-69
2024/02/03 10:25:43;;;;;;;;;15.00;12.75;;;;;15.09;35.40;101956.31;146611;578;46020;-69
2024/02/03 10:28:58;;;;;;;;;22.25;18.75;;;;;14.45;36.83;101812.78;146610;632;46012;-70
2024/02/03 10:31:57;;;;;;;;;16.25;16.25;;;;;15.30;34.32;101950.41;146614;569;46020;-70
2024/02/03 10:34:55;;;;;;;;;19.00;16.00;;;;;15.33;35.27;101946.25;146609;629;47016;-70
2024/02/03 10:37:51;;;;;;;;;23.25;18.50;;;;;15.40;34.60;101937.88;146614;586;46010;-69
2024/02/03 10:40:46;;;;;;;;;15.75;14.25;;;;;15.41;33.65;101933.53;146609;566;48012;-69
2024/02/03 10:44:16;;;;;;;;;19.00;16.25;;;;;15.42;33.64;101936.25;146610;563;47020;-70
2024/02/03 10:47:21;;;;;;;;;;;;;;;;;;;;;
2024/02/03 10:50:29;;;;;;;;;10.75;10.00;;;;;15.33;34.73;101930.56;146610;618;46020;-69
2024/02/03 10:53:45;;;;;;;;;15.50;14.50;;;;;14.27;35.51;101730.94;146611;564;46016;-71
2024/02/03 10:56:51;;;;;;;;;21.00;17.00;;;;;15.45;34.07;101925.03;146608;567;48010;-67
2024/02/03 10:59:56;;;;;;;;;15.00;14.00;;;;;15.45;32.91;101925.94;146609;613;46016;-71
2024/02/03 11:03:08;;;;;;;;;19.75;17.75;;;;;15.44;34.20;101921.53;146613;569;46010;-70
2024/02/03 11:06:08;;;;;;;;;21.50;19.00;;;;;15.47;33.58;101907.72;146609;570;48012;-73
2024/02/03 11:09:32;;;;;;;;;20.25;18.50;;;;;13.67;35.65;101575.69;146614;595;46021;-71
2024/02/03 11:12:35;;;;;;;;;17.25;16.50;;;;;15.63;34.29;101898.91;146606;583;47017;-71
2024/02/03 11:15:29;;;;;;;;;25.00;21.00;;;;;15.88;34.34;101895.81;146612;626;47020;-66
2024/02/03 11:18:22;;;;;;;;;27.00;27.00;;;;;16.11;34.25;101884.75;146611;579;46039;-68
2024/02/03 11:21:16;;;;;;;;;17.75;14.75;;;;;16.17;32.61;101892.00;146615;577;46010;-70
2024/02/03 11:24:22;;;;;;;;;18.50;17.75;;;;;16.07;32.12;101890.63;146608;608;47012;-70
2024/02/03 11:27:18;;;;;;;;;22.50;19.00;;;;;16.04;32.55;101884.37;146616;578;46020;-72
2024/02/03 11:30:22;;;;;;;;;15.00;14.00;;;;;16.01;31.89;101882.53;146608;588;46012;-72
2024/02/03 11:33:15;;;;;;;;;23.00;20.75;;;;;16.07;33.18;101879.28;146613;659;47043;-71
2024/02/03 11:36:20;;;;;;;;;17.50;16.25;;;;;16.01;32.69;101853.75;146610;600;47016;-70
2024/02/03 11:39:15;;;;;;;;;17.75;15.50;;;;;16.08;32.05;101871.50;146613;608;46020;-71
2024/02/03 11:42:11;;;;;;;;;21.25;21.00;;;;;16.08;33.44;101876.75;146612;608;46014;-73
2024/02/03 11:45:09;;;;;;;;;18.25;17.00;;;;;16.19;32.69;101865.88;146612;569;47010;-72
2024/02/03 11:48:07;;;;;;;;;22.25;17.75;;;;;16.25;32.71;101864.44;146603;627;47916;-72
2024/02/03 11:51:18;;;;;;;;;16.25;16.00;;;;;16.31;33.19;101854.25;146612;618;46020;-71
2024/02/03 11:54:14;;;;;;;;;16.25;15.25;;;;;16.30;31.59;101857.72;146610;691;46017;-71
2024/02/03 11:57:10;;;;;;;;;16.00;16.00;;;;;16.28;32.32;101853.22;146608;570;47020;-70
2024/02/03 12:00:07;;;;;;;;;20.00;16.25;;;;;16.31;32.06;101850.75;146606;651;46025;-71
2024/02/03 12:03:05;;;;;;;;;22.50;20.50;;;;;16.30;31.64;101842.00;146611;607;46021;-71
2024/02/03 12:06:04;;;;;;;;;23.25;16.50;;;;;16.32;31.00;101834.19;146606;607;46916;-72
2024/02/03 12:08:57;;;;;;;;;16.75;14.00;;;;;15.62;30.27;101753.34;146612;600;46020;-72
2024/02/03 12:12:12;;;;;;;;;17.50;15.25;;;;;16.23;32.32;101819.00;146607;668;46916;-72
2024/02/03 12:15:14;;;;;;;;;17.00;15.75;;;;;16.34;32.39;101827.31;146612;597;46020;-70
2024/02/03 12:18:27;;;;;;;;;16.00;15.75;;;;;15.31;31.77;101634.28;146607;627;46025;-70
2024/02/03 12:21:31;;;;;;;;;15.50;15.50;;;;;16.22;29.76;101808.44;146611;628;46037;-73
2024/02/03 12:24:32;;;;;;;;;18.50;16.75;;;;;16.17;31.22;101806.53;146612;607;46016;-71
2024/02/03 12:27:28;;;;;;;;;15.75;14.25;;;;;16.19;30.66;101803.97;146612;569;47036;-70
2024/02/03 12:30:34;;;;;;;;;17.75;17.00;;;;;16.22;31.81;101796.25;146604;569;48865;-70
2024/02/03 12:33:31;;;;;;;;;18.25;17.50;;;;;16.34;30.64;101790.69;146611;599;46011;-72
2024/02/03 12:36:32;;;;;;;;;18.50;16.50;;;;;16.36;30.44;101791.66;146612;569;46016;-71
2024/02/03 12:39:26;;;;;;;;;23.25;19.75;;;;;16.37;30.88;101788.19;146614;600;45020;-70
2024/02/03 12:42:26;;;;;;;;;19.00;15.75;;;;;16.40;30.87;101773.53;146609;606;46016;-71
2024/02/03 12:45:23;;;;;;;;;17.50;16.25;;;;;16.44;30.09;101786.75;146612;656;46010;-71
2024/02/03 12:48:19;;;;;;;;;22.00;18.25;;;;;16.44;31.02;101782.41;146610;568;46016;-71
2024/02/03 12:51:18;;;;;;;;;14.25;14.00;;;;;16.44;30.46;101787.62;146613;569;46045;-71
2024/02/03 12:54:14;;;;;;;;;15.25;14.00;;;;;16.51;31.20;101776.63;146607;583;47017;-72
2024/02/03 12:57:21;;;;;;;;;16.50;15.50;;;;;16.59;30.66;101777.84;146607;569;46018;-71
2024/02/03 13:00:19;;;;;;;;;20.25;16.25;;;;;16.68;30.13;101777.34;146607;618;46016;-73
2024/02/03 13:03:13;;;;;;;;;11.50;11.25;;;;;16.76;30.64;101775.06;146613;606;47010;-71
2024/02/03 13:06:11;;;;;;;;;15.75;15.00;;;;;16.91;30.27;101773.13;146609;591;46016;-70
2024/02/03 13:09:12;;;;;;;;;17.25;16.50;;;;;17.08;31.09;101772.09;146605;657;48010;-71
2024/02/03 13:12:08;;;;;;;;;19.00;16.75;;;;;17.27;31.38;101771.12;146607;619;48026;-71
2024/02/03 13:15:06;;;;;;;;;23.00;19.25;;;;;17.45;30.14;101767.47;146609;597;47010;-70
2024/02/03 13:18:04;;;;;;;;;19.00;17.25;;;;;17.49;28.96;101766.75;146606;649;48012;-72
2024/02/03 13:21:12;;;;;;;;;16.50;14.25;;;;;17.41;30.26;101776.91;146613;608;46020;-70
2024/02/03 13:24:14;;;;;;;;;16.50;15.50;;;;;17.50;30.58;101771.16;146608;571;47012;-71
2024/02/03 13:27:14;;;;;;;;;18.25;15.25;;;;;17.68;30.05;101771.88;146607;615;46020;-70
2024/02/03 13:30:17;;;;;;;;;32.00;27.25;;;;;17.88;31.17;101764.81;146611;708;46031;-69
2024/02/03 13:33:13;;;;;;;;;20.25;19.50;;;;;18.05;29.45;101759.31;146613;705;46020;-72
2024/02/03 13:36:11;;;;;;;;;29.50;25.50;;;;;18.16;31.33;101758.87;146612;563;46016;-69
2024/02/03 13:39:04;;;;;;;;;20.75;17.00;;;;;18.24;29.21;101760.03;146605;615;46021;-69
2024/02/03 13:42:01;;;;;;;;;25.75;25.00;;;;;18.35;29.62;101757.81;146609;647;47012;-70
2024/02/03 13:44:57;;;;;;;;;40.50;33.50;;;;;18.51;29.05;101769.75;146614;612;46029;-69
2024/02/03 13:48:07;;;;;;;;;26.00;22.25;;;;;18.62;29.24;101764.84;146608;566;46033;-70